Time;durP1;ratioP1;P1;durP2;ratioP2;P2;SDS_P1;SDS_P2;PMS_P1;PMS_P2;Temp;Humidity;BMP_temperature;BMP_pressure;BME280_temperature;BME280_humidity;BME280_pressure;Samples;Min_cycle;Max_cycle;Signal;HPM_P1;HPM_P2
2024/01/28 00:00:21;;;;;;;;;;;;;;;1.11;100.00;98320.27;110318;1248;69089;-61
2024/01/28 00:03:11;;;;;;;;;;;;;;;1.11;100.00;98320.63;110285;1241;59634;-61
2024/01/28 00:05:41;;;;;;;;;;;;;;;1.06;100.00;98319.69;110332;1241;59679;-61
2024/01/28 00:08:11;;;;;;;;;;;;;;;1.08;100.00;98320.50;110339;1240;70854;-61
2024/01/28 00:10:41;;;;;;;;;;;;;;;1.12;100.00;98319.58;110257;1243;69809;-61
2024/01/28 00:13:11;;;;;;;;;;;;;;;1.12;100.00;98322.84;110259;1241;69269;-61
2024/01/28 00:15:41;;;;;;;;;;;;;;;1.13;100.00;98328.65;110237;1241;59748;-60
2024/01/28 00:18:11;;;;;;;;;;;;;;;1.13;100.00;98328.84;110259;1242;59633;-60
2024/01/28 00:20:41;;;;;;;;;;;;;;;1.12;100.00;98332.27;110256;1242;71955;-60
2024/01/28 00:23:10;;;;;;;;;;;;;;;1.15;100.00;98337.54;110314;1242;69272;-62
2024/01/28 00:25:42;;;;;;;;;;;;;;;1.11;100.00;98332.80;110330;1241;69613;-61
2024/01/28 00:28:13;;;;;;;;;;;;;;;1.01;100.00;98330.27;110260;1241;59690;-60
2024/01/28 00:30:44;;;;;;;;;;;;;;;1.02;100.00;98331.63;110298;1239;59631;-59
2024/01/28 00:33:14;;;;;;;;;;;;;;;1.03;100.00;98333.83;110307;1242;71001;-60
2024/01/28 00:35:44;;;;;;;;;;;;;;;1.02;100.00;98332.46;110284;1241;69079;-60
2024/01/28 00:38:15;;;;;;;;;;;;;;;1.03;100.00;98335.86;110252;1242;69197;-60
2024/01/28 00:40:46;;;;;;;;;;;;;;;0.99;100.00;98337.52;110249;1242;60194;-60
2024/01/28 00:43:17;;;;;;;;;;;;;;;1.07;100.00;98339.94;110254;1241;59686;-61
2024/01/28 00:45:48;;;;;;;;;;;;;;;1.05;100.00;98340.64;110368;1240;71417;-60
2024/01/28 00:48:18;;;;;;;;;;;;;;;1.07;100.00;98341.48;110348;1249;69239;-63
2024/01/28 00:50:50;;;;;;;;;;;;;;;1.04;100.00;98343.43;110332;1242;69115;-60
2024/01/28 00:53:21;;;;;;;;;;;;;;;1.03;100.00;98346.20;110268;1242;59661;-60
2024/01/28 00:55:51;;;;;;;;;;;;;;;1.06;100.00;98348.55;110234;1241;59633;-62
2024/01/28 00:58:23;;;;;;;;;;;;;;;1.04;100.00;98351.15;110268;1243;71687;-60
2024/01/28 01:00:52;;;;;;;;;;;;;;;1.05;100.00;98352.85;110285;1241;68628;-63
2024/01/28 01:03:22;;;;;;;;;;;;;;;1.06;100.00;98355.73;110228;1242;69923;-60
2024/01/28 01:05:52;;;;;;;;;;;;;;;1.05;100.00;98349.59;110307;1241;59753;-61
2024/01/28 01:08:23;;;;;;;;;;;;;;;1.06;100.00;98346.12;110256;1242;59666;-60
2024/01/28 01:10:53;;;;;;;;;;;;;;;1.05;100.00;98348.05;110297;1241;71308;-61
2024/01/28 01:13:25;;;;;;;;;;;;;;;1.01;100.00;98347.44;110161;1244;69246;-61
2024/01/28 01:15:56;;;;;;;;;;;;;;;1.05;100.00;98346.32;110232;1242;69636;-61
2024/01/28 01:18:27;;;;;;;;;;;;;;;1.07;100.00;98345.27;110317;1239;59703;-61
2024/01/28 01:21:00;;;;;;;;;;;;;;;1.08;100.00;98347.13;110345;1241;59693;-63
2024/01/28 01:23:31;;;;;;;;;;;;;;;1.09;100.00;98351.40;110325;1243;71434;-61
2024/01/28 01:26:02;;;;;;;;;;;;;;;1.06;100.00;98351.63;110292;1241;69209;-61
2024/01/28 01:28:34;;;;;;;;;;;;;;;1.09;100.00;98359.30;110353;1241;68693;-61
2024/01/28 01:31:05;;;;;;;;;;;;;;;1.04;100.00;98357.65;110307;1246;59746;-61
2024/01/28 01:33:38;;;;;;;;;;;;;;;1.07;100.00;98355.56;110358;1241;59757;-61
2024/01/28 01:36:10;;;;;;;;;;;;;;;1.07;100.00;98356.41;110276;1241;71396;-61
2024/01/28 01:38:42;;;;;;;;;;;;;;;1.01;100.00;98354.65;110309;1242;69320;-61
2024/01/28 01:41:13;;;;;;;;;;;;;;;0.98;100.00;98352.13;110288;1241;69377;-61
2024/01/28 01:43:44;;;;;;;;;;;;;;;0.99;100.00;98352.95;110289;1246;59748;-61
2024/01/28 01:46:16;;;;;;;;;;;;;;;0.99;100.00;98356.38;110314;1242;59740;-61
2024/01/28 01:48:49;;;;;;;;;;;;;;;1.00;100.00;98358.43;110248;1239;71284;-61
2024/01/28 01:51:23;;;;;;;;;;;;;;;0.99;100.00;98360.00;110299;1241;69734;-61
2024/01/28 01:53:55;;;;;;;;;;;;;;;0.97;100.00;98364.84;110306;1243;68570;-61
2024/01/28 01:56:32;;;;;;;;;;;;;;;0.95;100.00;98365.22;110233;1240;59744;-61
2024/01/28 01:59:04;;;;;;;;;;;;;;;0.92;100.00;98363.89;110284;1241;59740;-61
2024/01/28 02:01:37;;;;;;;;;;;;;;;0.92;100.00;98369.91;110313;1247;71783;-61
2024/01/28 02:04:07;;;;;;;;;;;;;;;0.87;100.00;98370.70;110282;1243;68346;-61
2024/01/28 02:06:39;;;;;;;;;;;;;;;0.92;100.00;98369.39;110276;1244;68442;-61
2024/01/28 02:09:10;;;;;;;;;;;;;;;0.90;100.00;98372.69;110315;1241;59711;-61
2024/01/28 02:11:43;;;;;;;;;;;;;;;0.92;100.00;98373.69;110290;1242;59697;-61
2024/01/28 02:14:21;;;;;;;;;;;;;;;0.90;100.00;98377.34;110323;1241;70640;-61
2024/01/28 02:16:53;;;;;;;;;;;;;;;0.92;100.00;98382.27;110312;1249;69508;-61
2024/01/28 02:19:28;;;;;;;;;;;;;;;0.94;100.00;98384.29;110294;1242;69332;-61
2024/01/28 02:22:04;;;;;;;;;;;;;;;0.90;100.00;98385.39;110184;1240;59727;-61
2024/01/28 02:24:39;;;;;;;;;;;;;;;0.94;100.00;98388.06;110304;1247;59716;-61
2024/01/28 02:27:11;;;;;;;;;;;;;;;0.98;100.00;98385.23;110326;1242;71253;-61
2024/01/28 02:29:42;;;;;;;;;;;;;;;0.99;100.00;98382.83;110250;1248;69288;-61
2024/01/28 02:32:15;;;;;;;;;;;;;;;1.04;100.00;98383.77;110271;1242;69308;-61
2024/01/28 02:34:45;;;;;;;;;;;;;;;1.05;100.00;98382.55;110266;1242;59641;-61
2024/01/28 02:37:17;;;;;;;;;;;;;;;1.04;100.00;98388.23;110283;1242;59644;-61
2024/01/28 02:39:49;;;;;;;;;;;;;;;1.03;100.00;98388.76;110259;1243;71433;-61
2024/01/28 02:42:21;;;;;;;;;;;;;;;1.04;100.00;98389.42;110257;1249;69676;-61
2024/01/28 02:44:57;;;;;;;;;;;;;;;1.04;100.00;98395.09;110305;1241;68526;-61
2024/01/28 02:47:29;;;;;;;;;;;;;;;0.93;100.00;98394.62;110240;1240;59671;-61
2024/01/28 02:50:04;;;;;;;;;;;;;;;0.93;100.00;98398.56;110307;1242;59799;-61
2024/01/28 02:52:39;;;;;;;;;;;;;;;0.96;100.00;98397.30;110283;1241;70674;-61
2024/01/28 02:55:10;;;;;;;;;;;;;;;0.96;100.00;98400.23;110320;1241;68517;-62
2024/01/28 02:57:46;;;;;;;;;;;;;;;0.96;100.00;98400.39;110291;1242;69287;-61
2024/01/28 03:00:17;;;;;;;;;;;;;;;0.99;100.00;98399.98;110238;1242;59668;-61
2024/01/28 03:02:49;;;;;;;;;;;;;;;1.00;100.00;98401.69;110246;1241;59691;-62
2024/01/28 03:05:20;;;;;;;;;;;;;;;1.00;100.00;98406.33;110315;1243;70444;-61
2024/01/28 03:07:51;;;;;;;;;;;;;;;0.99;100.00;98409.77;110237;1242;69018;-61
2024/01/28 03:10:21;;;;;;;;;;;;;;;0.96;100.00;98413.95;110214;1241;69303;-61
2024/01/28 03:12:52;;;;;;;;;;;;;;;0.98;100.00;98418.71;110279;1241;59709;-61
2024/01/28 03:15:22;;;;;;;;;;;;;;;1.02;100.00;98421.40;110257;1242;59693;-61
2024/01/28 03:17:55;;;;;;;;;;;;;;;1.01;100.00;98422.79;110302;1242;70657;-61
2024/01/28 03:20:29;;;;;;;;;;;;;;;1.04;100.00;98418.95;110346;1242;69063;-61
2024/01/28 03:23:00;;;;;;;;;;;;;;;1.04;100.00;98421.02;110313;1241;69347;-61
2024/01/28 03:25:34;;;;;;;;;;;;;;;1.00;100.00;98416.45;110283;1241;59705;-61
2024/01/28 03:28:06;;;;;;;;;;;;;;;1.00;100.00;98421.08;110360;1241;59685;-61
2024/01/28 03:30:41;;;;;;;;;;;;;;;0.97;100.00;98419.60;110353;1244;71438;-61
2024/01/28 03:33:27;;;;;;;;;;;;;;;1.01;100.00;98417.11;110310;1243;69635;-61
2024/01/28 03:36:00;;;;;;;;;;;;;;;1.01;100.00;98419.35;110271;1242;69469;-62
2024/01/28 03:38:32;;;;;;;;;;;;;;;1.02;100.00;98419.86;110277;1241;59743;-62
2024/01/28 03:41:02;;;;;;;;;;;;;;;1.03;100.00;98419.15;110304;1241;59718;-61
2024/01/28 03:43:33;;;;;;;;;;;;;;;0.88;100.00;98417.02;110272;1242;70464;-61
2024/01/28 03:46:04;;;;;;;;;;;;;;;0.97;100.00;98422.00;110234;1244;69237;-62
2024/01/28 03:48:45;;;;;;;;;;;;;;;1.01;100.00;98422.60;110253;1243;68403;-62
2024/01/28 03:51:32;;;;;;;;;;;;;;;1.02;100.00;98423.29;110295;1242;59673;-61
2024/01/28 03:54:15;;;;;;;;;;;;;;;0.98;100.00;98426.10;110312;1242;59684;-61
2024/01/28 03:57:16;;;;;;;;;;;;;;;1.03;100.00;98426.19;110048;1244;71448;-61
2024/01/28 04:00:19;;;;;;;;;;;;;;;0.98;100.00;98429.54;109978;1242;68227;-61
2024/01/28 04:02:51;;;;;;;;;;;;;;;0.97;100.00;98432.46;110310;1241;69800;-61
2024/01/28 04:05:25;;;;;;;;;;;;;;;0.97;100.00;98438.48;110240;1247;59733;-61
2024/01/28 04:07:57;;;;;;;;;;;;;;;0.91;100.00;98435.15;110164;1242;59728;-62
2024/01/28 04:10:28;;;;;;;;;;;;;;;0.94;100.00;98438.70;110280;1242;71319;-62
2024/01/28 04:13:00;;;;;;;;;;;;;;;0.97;100.00;98442.25;110313;1240;69067;-61
2024/01/28 04:15:31;;;;;;;;;;;;;;;0.96;100.00;98442.97;110297;1242;69309;-61
2024/01/28 04:18:06;;;;;;;;;;;;;;;0.85;100.00;98447.62;110264;1249;59744;-61
2024/01/28 04:20:52;;;;;;;;;;;;;;;0.90;100.00;98448.40;110317;1242;59689;-61
2024/01/28 04:23:25;;;;;;;;;;;;;;;0.93;100.00;98446.80;110335;1242;71229;-61
2024/01/28 04:25:57;;;;;;;;;;;;;;;0.92;100.00;98453.48;110295;1242;69107;-62
2024/01/28 04:28:31;;;;;;;;;;;;;;;0.94;100.00;98454.52;110292;1241;68318;-61
2024/01/28 04:31:07;;;;;;;;;;;;;;;0.96;100.00;98454.46;110310;1242;59753;-61
2024/01/28 04:33:41;;;;;;;;;;;;;;;0.90;100.00;98455.43;110346;1241;59728;-61
2024/01/28 04:36:34;;;;;;;;;;;;;;;0.86;100.00;98453.94;110289;1241;71509;-61
2024/01/28 04:39:39;;;;;;;;;;;;;;;0.89;100.00;98464.20;110363;1242;67515;-62
2024/01/28 04:42:21;;;;;;;;;;;;;;;0.92;100.00;98468.42;110281;1247;69229;-61
2024/01/28 04:44:54;;;;;;;;;;;;;;;0.93;100.00;98467.05;110310;1242;59751;-61
2024/01/28 04:47:25;;;;;;;;;;;;;;;0.93;100.00;98465.16;110270;1243;59706;-61
2024/01/28 04:49:55;;;;;;;;;;;;;;;0.90;100.00;98468.47;110289;1243;71401;-61
2024/01/28 04:52:39;;;;;;;;;;;;;;;0.90;100.00;98470.52;110338;1241;68066;-62
2024/01/28 04:55:11;;;;;;;;;;;;;;;0.91;100.00;98473.95;110386;1242;69279;-63
2024/01/28 04:57:41;;;;;;;;;;;;;;;0.91;100.00;98474.98;110292;1242;59665;-62
2024/01/28 05:00:11;;;;;;;;;;;;;;;0.90;100.00;98479.11;110341;1241;59780;-61
2024/01/28 05:02:42;;;;;;;;;;;;;;;0.85;100.00;98478.68;110323;1241;70694;-61
2024/01/28 05:05:12;;;;;;;;;;;;;;;0.88;100.00;98478.11;110324;1241;68586;-61
2024/01/28 05:07:42;;;;;;;;;;;;;;;0.87;100.00;98485.17;110322;1241;67734;-61
2024/01/28 05:10:12;;;;;;;;;;;;;;;0.86;100.00;98492.57;110292;1241;59698;-61
2024/01/28 05:12:47;;;;;;;;;;;;;;;0.81;100.00;98494.89;110385;1242;59663;-61
2024/01/28 05:15:26;;;;;;;;;;;;;;;0.84;100.00;98494.85;110331;1242;70738;-61
2024/01/28 05:17:58;;;;;;;;;;;;;;;0.86;100.00;98498.41;110317;1242;69782;-62
2024/01/28 05:20:28;;;;;;;;;;;;;;;0.86;100.00;98500.64;110264;1241;69897;-61
2024/01/28 05:22:59;;;;;;;;;;;;;;;0.88;100.00;98501.28;110272;1248;59747;-61
2024/01/28 05:25:32;;;;;;;;;;;;;;;0.90;100.00;98502.46;110336;1240;59683;-61
2024/01/28 05:28:18;;;;;;;;;;;;;;;0.85;100.00;98506.48;110157;1242;71794;-61
2024/01/28 05:31:00;;;;;;;;;;;;;;;0.82;100.00;98510.98;110291;1242;69892;-61
2024/01/28 05:33:34;;;;;;;;;;;;;;;0.83;100.00;98514.23;110179;1242;68460;-62
2024/01/28 05:36:12;;;;;;;;;;;;;;;0.85;100.00;98518.67;110250;1241;59753;-62
2024/01/28 05:38:41;;;;;;;;;;;;;;;0.88;100.00;98521.54;110292;1241;59637;-61
2024/01/28 05:41:16;;;;;;;;;;;;;;;0.82;100.00;98525.41;110319;1241;71449;-62
2024/01/28 05:44:15;;;;;;;;;;;;;;;0.82;100.00;98530.21;110350;1241;69817;-62
2024/01/28 05:46:45;;;;;;;;;;;;;;;0.83;100.00;98532.10;110268;1241;68552;-61
2024/01/28 05:49:21;;;;;;;;;;;;;;;0.82;100.00;98537.43;110326;1241;59675;-61
2024/01/28 05:51:52;;;;;;;;;;;;;;;0.79;100.00;98539.36;110347;1241;60088;-61
2024/01/28 05:54:21;;;;;;;;;;;;;;;0.76;100.00;98539.75;110300;1241;72333;-61
2024/01/28 05:56:51;;;;;;;;;;;;;;;0.78;100.00;98538.17;110304;1240;69320;-61
2024/01/28 05:59:20;;;;;;;;;;;;;;;0.77;100.00;98536.64;110256;1243;69209;-61
2024/01/28 06:01:50;;;;;;;;;;;;;;;0.74;100.00;98543.73;110253;1241;59743;-61
2024/01/28 06:04:34;;;;;;;;;;;;;;;0.76;100.00;98550.23;110272;1241;59686;-61
2024/01/28 06:07:05;;;;;;;;;;;;;;;0.75;100.00;98555.39;110220;1241;71594;-61
2024/01/28 06:09:35;;;;;;;;;;;;;;;0.75;100.00;98562.24;110318;1241;68397;-61
2024/01/28 06:12:05;;;;;;;;;;;;;;;0.77;100.00;98566.85;110226;1241;68675;-61
2024/01/28 06:14:34;;;;;;;;;;;;;;;0.73;100.00;98572.39;110246;1242;59723;-61
2024/01/28 06:17:17;;;;;;;;;;;;;;;0.76;100.00;98578.70;110266;1241;59695;-61
2024/01/28 06:19:46;;;;;;;;;;;;;;;0.81;100.00;98580.52;110252;1241;71350;-61
2024/01/28 06:22:16;;;;;;;;;;;;;;;0.78;100.00;98583.81;110301;1241;69159;-62
2024/01/28 06:24:45;;;;;;;;;;;;;;;0.80;100.00;98584.66;110318;1242;69761;-62
2024/01/28 06:27:15;;;;;;;;;;;;;;;0.73;100.00;98587.50;110286;1245;59698;-63
2024/01/28 06:29:47;;;;;;;;;;;;;;;0.77;100.00;98587.95;110301;1241;59744;-62
2024/01/28 06:32:17;;;;;;;;;;;;;;;0.85;100.00;98586.64;110268;1241;72266;-62
2024/01/28 06:34:48;;;;;;;;;;;;;;;0.88;100.00;98591.05;110375;1242;69230;-62
2024/01/28 06:37:17;;;;;;;;;;;;;;;0.91;100.00;98589.11;110288;1241;70201;-62
2024/01/28 06:39:57;;;;;;;;;;;;;;;0.94;100.00;98599.89;110234;1242;59696;-62
2024/01/28 06:42:26;;;;;;;;;;;;;;;0.97;100.00;98603.80;110266;1243;59627;-62
2024/01/28 06:44:56;;;;;;;;;;;;;;;0.98;100.00;98603.60;110175;1242;71286;-62
2024/01/28 06:47:27;;;;;;;;;;;;;;;0.95;100.00;98603.47;110241;1241;69022;-62
2024/01/28 06:49:56;;;;;;;;;;;;;;;0.98;100.00;98608.58;110247;1241;69984;-62
2024/01/28 06:52:26;;;;;;;;;;;;;;;0.95;100.00;98610.33;110210;1241;59711;-62
2024/01/28 06:54:55;;;;;;;;;;;;;;;1.01;100.00;98611.27;110259;1241;59644;-62
2024/01/28 06:57:24;;;;;;;;;;;;;;;1.00;100.00;98614.38;110264;1241;71492;-62
2024/01/28 06:59:54;;;;;;;;;;;;;;;1.02;100.00;98617.09;110240;1240;69230;-62
2024/01/28 07:02:24;;;;;;;;;;;;;;;0.99;100.00;98616.80;110275;1241;69924;-60
2024/01/28 07:04:54;;;;;;;;;;;;;;;0.94;100.00;98616.02;110268;1242;59691;-61
2024/01/28 07:07:23;;;;;;;;;;;;;;;0.94;100.00;98617.05;110233;1241;59786;-61
2024/01/28 07:09:52;;;;;;;;;;;;;;;0.88;100.00;98617.48;110283;1241;70406;-60
2024/01/28 07:12:21;;;;;;;;;;;;;;;0.94;100.00;98620.65;110226;1239;69366;-60
2024/01/28 07:14:51;;;;;;;;;;;;;;;0.95;100.00;98618.41;110231;1241;70056;-61
2024/01/28 07:17:20;;;;;;;;;;;;;;;0.95;100.00;98616.02;110247;1241;59672;-60
2024/01/28 07:19:49;;;;;;;;;;;;;;;0.91;100.00;98618.47;110256;1241;59675;-61
2024/01/28 07:22:18;;;;;;;;;;;;;;;0.93;100.00;98619.13;110267;1241;70807;-61
2024/01/28 07:24:48;;;;;;;;;;;;;;;0.94;100.00;98620.33;110241;1249;69848;-61
2024/01/28 07:27:17;;;;;;;;;;;;;;;0.94;100.00;98625.47;110229;1241;69271;-61
2024/01/28 07:29:46;;;;;;;;;;;;;;;0.94;100.00;98622.02;110231;1242;59686;-61
2024/01/28 07:32:16;;;;;;;;;;;;;;;1.00;100.00;98623.65;110257;1241;59751;-61
2024/01/28 07:34:45;;;;;;;;;;;;;;;1.03;100.00;98624.30;110295;1241;72028;-61
2024/01/28 07:37:14;;;;;;;;;;;;;;;1.08;100.00;98621.48;110277;1241;69125;-61
2024/01/28 07:39:43;;;;;;;;;;;;;;;1.18;100.00;98618.56;110209;1242;69164;-62
2024/01/28 07:42:12;;;;;;;;;;;;;;;1.27;100.00;98618.43;110269;1241;59734;-61
2024/01/28 07:44:42;;;;;;;;;;;;;;;1.50;100.00;98622.17;110317;1241;59695;-62
2024/01/28 07:47:11;;;;;;;;;;;;;;;1.68;100.00;98621.34;110225;1241;72335;-61
2024/01/28 07:49:40;;;;;;;;;;;;;;;1.84;100.00;98620.54;110241;1241;69542;-61
2024/01/28 07:52:09;;;;;;;;;;;;;;;2.00;100.00;98621.26;110261;1241;69754;-61
2024/01/28 07:54:39;;;;;;;;;;;;;;;2.09;100.00;98619.70;110307;1241;59746;-61
2024/01/28 07:57:08;;;;;;;;;;;;;;;2.24;100.00;98622.86;110247;1239;59739;-61
2024/01/28 07:59:37;;;;;;;;;;;;;;;2.30;100.00;98628.23;110238;1239;71883;-61
2024/01/28 08:02:06;;;;;;;;;;;;;;;2.40;100.00;98629.06;110282;1241;68486;-61
2024/01/28 08:04:35;;;;;;;;;;;;;;;2.44;100.00;98632.06;110249;1243;69756;-62
2024/01/28 08:07:04;;;;;;;;;;;;;;;2.46;100.00;98636.69;110226;1243;59719;-61
2024/01/28 08:09:33;;;;;;;;;;;;;;;2.50;100.00;98634.87;110240;1241;60181;-62
2024/01/28 08:12:03;;;;;;;;;;;;;;;2.57;100.00;98635.95;110240;1243;70714;-62
2024/01/28 08:14:34;;;;;;;;;;;;;;;2.62;100.00;98633.95;110296;1241;69829;-62
2024/01/28 08:17:18;;;;;;;;;;;;;;;2.63;100.00;98639.60;110258;1241;69970;-62
2024/01/28 08:19:47;;;;;;;;;;;;;;;2.64;100.00;98642.67;110286;1241;59732;-61
2024/01/28 08:22:17;;;;;;;;;;;;;;;2.73;100.00;98644.54;110272;1242;59624;-62
2024/01/28 08:24:46;;;;;;;;;;;;;;;2.77;100.00;98645.83;110256;1241;70669;-61
2024/01/28 08:27:17;;;;;;;;;;;;;;;2.83;100.00;98654.14;110272;1242;69850;-61
2024/01/28 08:29:46;;;;;;;;;;;;;;;2.99;100.00;98658.23;110323;1241;68411;-61
2024/01/28 08:32:19;;;;;;;;;;;;;;;3.12;100.00;98657.42;110252;1242;59600;-61
2024/01/28 08:34:51;;;;;;;;;;;;;;;3.11;100.00;98659.20;110267;1241;59738;-61
2024/01/28 08:37:22;;;;;;;;;;;;;;;3.21;100.00;98658.09;110238;1248;72301;-61
2024/01/28 08:39:53;;;;;;;;;;;;;;;3.31;100.00;98664.59;110240;1241;69217;-61
2024/01/28 08:42:24;;;;;;;;;;;;;;;3.36;100.00;98675.15;110211;1240;69279;-61
2024/01/28 08:44:53;;;;;;;;;;;;;;;3.31;100.00;98680.27;110261;1241;59747;-61
2024/01/28 08:47:22;;;;;;;;;;;;;;;3.32;100.00;98684.03;110319;1241;59704;-61
2024/01/28 08:49:51;;;;;;;;;;;;;;;3.23;100.00;98688.20;110283;1241;70821;-61
2024/01/28 08:52:21;;;;;;;;;;;;;;;3.14;100.00;98691.50;110351;1241;69188;-61
2024/01/28 08:54:50;;;;;;;;;;;;;;;3.02;100.00;98694.02;110304;1242;68563;-61
2024/01/28 08:57:20;;;;;;;;;;;;;;;2.94;100.00;98695.73;110274;1241;59737;-61
2024/01/28 08:59:49;;;;;;;;;;;;;;;2.92;100.00;98701.11;110278;1243;59605;-61
2024/01/28 09:02:19;;;;;;;;;;;;;;;2.86;100.00;98702.80;110307;1241;71991;-61
2024/01/28 09:04:47;;;;;;;;;;;;;;;2.87;100.00;98702.77;110270;1242;69814;-61
2024/01/28 09:07:16;;;;;;;;;;;;;;;2.88;100.00;98705.34;110297;1244;69880;-61
2024/01/28 09:09:46;;;;;;;;;;;;;;;2.93;100.00;98704.37;110284;1241;59664;-61
2024/01/28 09:12:15;;;;;;;;;;;;;;;2.93;100.00;98704.20;110251;1241;59681;-61
2024/01/28 09:14:44;;;;;;;;;;;;;;;2.96;100.00;98699.14;110328;1241;71839;-61
2024/01/28 09:17:14;;;;;;;;;;;;;;;3.01;100.00;98704.02;110223;1241;69470;-61
2024/01/28 09:19:47;;;;;;;;;;;;;;;3.07;100.00;98700.45;110277;1241;70018;-61
2024/01/28 09:22:16;;;;;;;;;;;;;;;3.13;100.00;98697.21;110334;1241;59687;-61
2024/01/28 09:24:45;;;;;;;;;;;;;;;3.21;100.00;98695.66;110322;1241;59668;-61
2024/01/28 09:27:15;;;;;;;;;;;;;;;3.26;100.00;98690.55;110277;1240;71076;-61
2024/01/28 09:29:44;;;;;;;;;;;;;;;3.33;100.00;98695.71;110262;1241;69659;-61
2024/01/28 09:32:13;;;;;;;;;;;;;;;3.42;100.00;98694.13;110211;1241;69683;-61
2024/01/28 09:34:46;;;;;;;;;;;;;;;3.51;100.00;98695.31;110239;1241;59691;-61
2024/01/28 09:37:14;;;;;;;;;;;;;;;3.64;100.00;98700.52;110225;1248;59674;-61
2024/01/28 09:39:43;;;;;;;;;;;;;;;3.75;100.00;98704.55;110253;1241;71881;-61
2024/01/28 09:42:23;;;;;;;;;;;;;;;3.86;100.00;98703.92;110212;1240;69149;-61
2024/01/28 09:44:52;;;;;;;;;;;;;;;3.98;100.00;98703.77;110233;1241;69766;-61
2024/01/28 09:47:22;;;;;;;;;;;;;;;3.94;100.00;98699.56;110261;1241;59722;-63
2024/01/28 09:49:51;;;;;;;;;;;;;;;4.03;100.00;98702.79;110232;1241;59752;-61
2024/01/28 09:52:20;;;;;;;;;;;;;;;4.07;100.00;98700.62;110273;1242;71451;-62
2024/01/28 09:54:49;;;;;;;;;;;;;;;4.15;100.00;98703.34;110238;1241;69503;-61
2024/01/28 09:57:18;;;;;;;;;;;;;;;4.13;100.00;98703.42;110243;1241;69863;-61
2024/01/28 09:59:47;;;;;;;;;;;;;;;4.16;100.00;98708.17;110204;1241;59703;-61
2024/01/28 10:02:17;;;;;;;;;;;;;;;4.16;100.00;98705.58;110271;1241;59750;-61
2024/01/28 10:04:46;;;;;;;;;;;;;;;4.13;100.00;98702.53;110213;1240;71556;-61
2024/01/28 10:07:15;;;;;;;;;;;;;;;4.26;100.00;98703.40;110261;1248;69834;-61
2024/01/28 10:09:45;;;;;;;;;;;;;;;4.31;100.00;98703.27;110139;1241;69698;-61
2024/01/28 10:12:14;;;;;;;;;;;;;;;4.39;100.00;98702.19;110260;1241;59708;-61
2024/01/28 10:14:52;;;;;;;;;;;;;;;4.54;100.00;98697.10;110292;1241;59630;-61
2024/01/28 10:17:22;;;;;;;;;;;;;;;4.66;99.62;98699.88;110252;1241;71257;-61
2024/01/28 10:19:51;;;;;;;;;;;;;;;4.80;99.85;98698.77;110342;1241;70210;-63
2024/01/28 10:22:20;;;;;;;;;;;;;;;4.91;99.55;98699.16;110232;1241;69269;-61
2024/01/28 10:24:49;;;;;;;;;;;;;;;4.90;99.70;98700.92;110247;1241;59689;-61
2024/01/28 10:27:19;;;;;;;;;;;;;;;5.19;99.40;98702.11;110216;1240;59764;-61
2024/01/28 10:29:48;;;;;;;;;;;;;;;5.60;98.64;98700.49;110230;1241;71972;-63
2024/01/28 10:32:17;;;;;;;;;;;;;;;5.85;96.68;98699.83;110248;1241;69877;-63
2024/01/28 10:34:46;;;;;;;;;;;;;;;5.98;94.48;98695.99;110213;1240;69057;-62
2024/01/28 10:37:16;;;;;;;;;;;;;;;5.98;92.37;98693.01;110212;1241;59738;-61
2024/01/28 10:39:47;;;;;;;;;;;;;;;5.95;91.72;98691.54;110259;1241;59737;-61
2024/01/28 10:42:19;;;;;;;;;;;;;;;5.92;91.25;98689.96;110220;1239;71982;-61
2024/01/28 10:44:51;;;;;;;;;;;;;;;5.92;91.76;98689.77;110268;1241;69665;-61
2024/01/28 10:47:23;;;;;;;;;;;;;;;5.95;92.95;98694.71;110281;1241;69935;-61
2024/01/28 10:49:59;;;;;;;;;;;;;;;5.84;92.24;98700.20;110182;1250;59736;-61
2024/01/28 10:52:29;;;;;;;;;;;;;;;5.76;91.30;98702.91;110292;1247;59742;-61
2024/01/28 10:55:00;;;;;;;;;;;;;;;5.55;91.66;98702.54;110254;1241;71734;-61
2024/01/28 10:57:29;;;;;;;;;;;;;;;5.36;91.16;98696.89;110287;1241;69822;-61
2024/01/28 10:59:59;;;;;;;;;;;;;;;5.39;92.13;98701.48;110238;1241;69877;-61
2024/01/28 11:02:30;;;;;;;;;;;;;;;5.41;92.21;98700.75;110294;1242;59755;-61
2024/01/28 11:05:02;;;;;;;;;;;;;;;5.42;91.62;98704.34;110304;1248;59674;-61
2024/01/28 11:07:31;;;;;;;;;;;;;;;5.38;92.50;98709.98;110260;1240;71984;-61
2024/01/28 11:10:01;;;;;;;;;;;;;;;5.58;93.41;98711.61;110240;1241;69173;-61
2024/01/28 11:12:30;;;;;;;;;;;;;;;5.61;91.64;98710.98;110248;1239;69898;-61
2024/01/28 11:14:59;;;;;;;;;;;;;;;5.71;92.36;98709.83;109806;1241;586688;-62
2024/01/28 11:17:35;;;;;;;;;;;;;;;5.80;90.87;98709.70;110277;1239;60011;-61
2024/01/28 11:20:11;;;;;;;;;;;;;;;5.99;90.94;98707.00;110273;1240;71359;-61
2024/01/28 11:22:49;;;;;;;;;;;;;;;6.05;90.83;98708.53;110259;1241;69826;-61
2024/01/28 11:25:19;;;;;;;;;;;;;;;6.13;90.35;98703.95;110286;1241;69862;-61
2024/01/28 11:27:48;;;;;;;;;;;;;;;6.21;86.42;98702.12;110250;1248;59971;-61
2024/01/28 11:30:21;;;;;;;;;;;;;;;6.36;87.75;98704.17;110257;1240;60030;-61
2024/01/28 11:32:55;;;;;;;;;;;;;;;6.44;85.48;98705.98;110354;1242;70768;-61
2024/01/28 11:35:26;;;;;;;;;;;;;;;6.45;86.03;98704.90;110271;1239;68026;-61
2024/01/28 11:37:57;;;;;;;;;;;;;;;6.35;84.15;98703.87;110338;1240;69268;-61
2024/01/28 11:40:29;;;;;;;;;;;;;;;6.32;84.31;98707.59;110258;1241;59737;-61
2024/01/28 11:42:59;;;;;;;;;;;;;;;6.26;85.14;98706.96;110206;1241;59764;-61
2024/01/28 11:45:29;;;;;;;;;;;;;;;6.26;85.82;98712.34;110294;1241;71967;-61
2024/01/28 11:48:04;;;;;;;;;;;;;;;6.29;85.77;98709.11;110307;1241;69675;-61
2024/01/28 11:50:34;;;;;;;;;;;;;;;6.33;85.13;98711.89;110296;1241;69864;-62
2024/01/28 11:53:06;;;;;;;;;;;;;;;6.56;83.70;98713.86;110279;1241;59702;-62
2024/01/28 11:55:35;;;;;;;;;;;;;;;6.78;85.10;98711.34;110334;1240;59959;-62
2024/01/28 11:58:04;;;;;;;;;;;;;;;6.72;83.33;98712.94;110272;1241;71356;-62
2024/01/28 12:00:33;;;;;;;;;;;;;;;6.71;81.64;98715.08;110279;1241;69865;-62
2024/01/28 12:03:03;;;;;;;;;;;;;;;6.67;81.57;98713.12;110307;1241;70045;-62
2024/01/28 12:05:32;;;;;;;;;;;;;;;6.68;81.70;98712.92;110270;1241;59705;-62
2024/01/28 12:08:02;;;;;;;;;;;;;;;6.58;81.88;98718.63;110303;1241;59664;-62
2024/01/28 12:10:35;;;;;;;;;;;;;;;6.72;82.50;98718.85;110358;1239;71963;-62
2024/01/28 12:13:05;;;;;;;;;;;;;;;6.78;80.82;98719.98;110320;1241;69667;-62
2024/01/28 12:15:34;;;;;;;;;;;;;;;6.68;81.30;98721.05;110275;1240;69896;-62
2024/01/28 12:18:03;;;;;;;;;;;;;;;6.55;81.18;98727.58;110271;1241;59734;-62
2024/01/28 12:20:32;;;;;;;;;;;;;;;6.48;82.11;98731.66;110269;1241;59647;-62
2024/01/28 12:23:01;;;;;;;;;;;;;;;6.26;82.03;98735.16;110250;1240;71340;-62
2024/01/28 12:25:30;;;;;;;;;;;;;;;5.86;82.10;98738.05;110260;1241;69045;-62
2024/01/28 12:27:58;;;;;;;;;;;;;;;5.72;83.07;98737.96;110268;1241;69350;-63
2024/01/28 12:30:28;;;;;;;;;;;;;;;5.61;83.35;98736.58;110231;1239;59737;-62
2024/01/28 12:32:57;;;;;;;;;;;;;;;5.48;82.97;98736.48;110247;1241;60192;-62
2024/01/28 12:35:26;;;;;;;;;;;;;;;5.26;84.86;98736.30;110271;1241;71963;-62
2024/01/28 12:37:55;;;;;;;;;;;;;;;5.36;85.00;98739.97;110292;1241;68578;-62
2024/01/28 12:40:24;;;;;;;;;;;;;;;5.47;85.02;98743.10;110245;1241;69922;-62
2024/01/28 12:42:53;;;;;;;;;;;;;;;5.55;84.67;98745.43;110259;1241;59758;-62
2024/01/28 12:45:22;;;;;;;;;;;;;;;5.55;84.46;98750.09;110194;1242;59708;-62
2024/01/28 12:47:51;;;;;;;;;;;;;;;5.65;84.95;98749.61;110254;1240;71782;-61
2024/01/28 12:50:22;;;;;;;;;;;;;;;5.64;84.46;98748.45;110250;1240;69851;-62
2024/01/28 12:52:50;;;;;;;;;;;;;;;5.49;84.85;98748.38;110257;1241;69873;-61
2024/01/28 12:55:19;;;;;;;;;;;;;;;5.50;84.75;98752.16;110248;1239;59700;-61
2024/01/28 12:57:48;;;;;;;;;;;;;;;5.50;84.84;98748.52;110270;1241;59753;-61
2024/01/28 13:00:17;;;;;;;;;;;;;;;5.44;84.95;98753.89;110264;1241;71148;-61